sensor_id;sensor_type;location;lat;lon;timestamp;temperature;humidity
42615;DHT22;28754;47.700;7.924;2023-05-14T00:00:12;8.80;99.90
42615;DHT22;28754;47.700;7.924;2023-05-14T00:03:00;8.90;99.90
42615;DHT22;28754;47.700;7.924;2023-05-14T00:05:49;8.90;99.90
42615;DHT22;28754;47.700;7.924;2023-05-14T00:08:37;9.00;99.90
42615;DHT22;28754;47.700;7.924;2023-05-14T00:11:25;9.10;99.90
42615;DHT22;28754;47.700;7.924;2023-05-14T00:14:12;9.20;99.90
42615;DHT22;28754;47.700;7.924;2023-05-14T00:17:00;9.20;99.90
42615;DHT22;28754;47.700;7.924;2023-05-14T00:19:47;9.10;99.90
42615;DHT22;28754;47.700;7.924;2023-05-14T00:22:34;9.10;99.90
42615;DHT22;28754;47.700;7.924;2023-05-14T00:25:22;9.00;99.90
42615;DHT22;28754;47.700;7.924;2023-05-14T00:28:10;9.00;99.90
42615;DHT22;28754;47.700;7.924;2023-05-14T00:30:57;8.90;99.90
42615;DHT22;28754;47.700;7.924;2023-05-14T00:33:44;8.80;99.90
42615;DHT22;28754;47.700;7.924;2023-05-14T00:36:31;8.80;99.90
42615;DHT22;28754;47.700;7.924;2023-05-14T00:39:18;8.60;99.90
42615;DHT22;28754;47.700;7.924;2023-05-14T00:42:05;8.50;99.90
42615;DHT22;28754;47.700;7.924;2023-05-14T00:44:52;8.40;99.90
42615;DHT22;28754;47.700;7.924;2023-05-14T00:47:39;8.30;99.90
42615;DHT22;28754;47.700;7.924;2023-05-14T00:50:26;8.30;99.90
42615;DHT22;28754;47.700;7.924;2023-05-14T00:53:23;8.40;99.90
42615;DHT22;28754;47.700;7.924;2023-05-14T00:56:19;8.40;99.90
42615;DHT22;28754;47.700;7.924;2023-05-14T00:59:06;8.50;99.90
42615;DHT22;28754;47.700;7.924;2023-05-14T01:01:53;8.60;99.90
42615;DHT22;28754;47.700;7.924;2023-05-14T01:04:41;8.70;99.90
42615;DHT22;28754;47.700;7.924;2023-05-14T01:11:12;8.90;99.90
42615;DHT22;28754;47.700;7.924;2023-05-14T01:17:21;9.20;99.90
42615;DHT22;28754;47.700;7.924;2023-05-14T01:20:13;9.30;99.90
42615;DHT22;28754;47.700;7.924;2023-05-14T01:23:01;9.30;99.90
42615;DHT22;28754;47.700;7.924;2023-05-14T01:25:48;9.30;99.90
42615;DHT22;28754;47.700;7.924;2023-05-14T01:28:36;9.40;99.90
42615;DHT22;28754;47.700;7.924;2023-05-14T01:31:25;9.40;99.90
42615;DHT22;28754;47.700;7.924;2023-05-14T01:34:15;9.40;99.90
42615;DHT22;28754;47.700;7.924;2023-05-14T01:37:07;9.40;99.90
42615;DHT22;28754;47.700;7.924;2023-05-14T01:39:57;9.40;99.90
42615;DHT22;28754;47.700;7.924;2023-05-14T01:42:45;9.40;99.90
42615;DHT22;28754;47.700;7.924;2023-05-14T01:45:34;9.40;99.90
42615;DHT22;28754;47.700;7.924;2023-05-14T01:48:22;9.40;99.90
42615;DHT22;28754;47.700;7.924;2023-05-14T01:51:08;9.40;99.90
42615;DHT22;28754;47.700;7.924;2023-05-14T01:53:55;9.40;99.90
42615;DHT22;28754;47.700;7.924;2023-05-14T01:56:42;9.40;99.90
42615;DHT22;28754;47.700;7.924;2023-05-14T01:59:29;9.40;99.90
42615;DHT22;28754;47.700;7.924;2023-05-14T02:02:23;9.40;99.90
42615;DHT22;28754;47.700;7.924;2023-05-14T02:05:27;9.30;99.90
42615;DHT22;28754;47.700;7.924;2023-05-14T02:08:18;9.40;99.90
42615;DHT22;28754;47.700;7.924;2023-05-14T02:11:08;9.40;99.90
42615;DHT22;28754;47.700;7.924;2023-05-14T02:13:57;9.40;99.90
42615;DHT22;28754;47.700;7.924;2023-05-14T02:16:50;9.40;99.90
42615;DHT22;28754;47.700;7.924;2023-05-14T02:19:43;9.50;99.90
42615;DHT22;28754;47.700;7.924;2023-05-14T02:22:32;9.50;99.90
42615;DHT22;28754;47.700;7.924;2023-05-14T02:25:22;9.50;99.90
42615;DHT22;28754;47.700;7.924;2023-05-14T02:28:12;9.60;99.90
42615;DHT22;28754;47.700;7.924;2023-05-14T02:32:06;9.60;99.90
42615;DHT22;28754;47.700;7.924;2023-05-14T02:34:53;9.70;99.90
42615;DHT22;28754;47.700;7.924;2023-05-14T02:37:45;9.70;99.90
42615;DHT22;28754;47.700;7.924;2023-05-14T02:40:35;9.70;99.90
42615;DHT22;28754;47.700;7.924;2023-05-14T02:43:23;9.70;99.90
42615;DHT22;28754;47.700;7.924;2023-05-14T02:46:12;9.70;99.90
42615;DHT22;28754;47.700;7.924;2023-05-14T02:49:02;9.80;99.90
42615;DHT22;28754;47.700;7.924;2023-05-14T02:51:50;9.70;99.90
42615;DHT22;28754;47.700;7.924;2023-05-14T02:54:37;9.80;99.90
42615;DHT22;28754;47.700;7.924;2023-05-14T02:57:25;9.80;99.90
42615;DHT22;28754;47.700;7.924;2023-05-14T03:00:12;9.80;99.90
42615;DHT22;28754;47.700;7.924;2023-05-14T03:03:00;9.80;99.90
42615;DHT22;28754;47.700;7.924;2023-05-14T03:05:49;9.80;99.90
42615;DHT22;28754;47.700;7.924;2023-05-14T03:08:36;9.80;99.90
42615;DHT22;28754;47.700;7.924;2023-05-14T03:11:23;9.70;99.90
42615;DHT22;28754;47.700;7.924;2023-05-14T03:14:11;9.70;99.90
42615;DHT22;28754;47.700;7.924;2023-05-14T03:16:58;9.70;99.90
42615;DHT22;28754;47.700;7.924;2023-05-14T03:19:45;9.70;99.90
42615;DHT22;28754;47.700;7.924;2023-05-14T03:22:32;9.70;99.90
42615;DHT22;28754;47.700;7.924;2023-05-14T03:25:19;9.70;99.90
42615;DHT22;28754;47.700;7.924;2023-05-14T03:28:06;9.70;99.90
42615;DHT22;28754;47.700;7.924;2023-05-14T03:30:53;9.70;99.90
42615;DHT22;28754;47.700;7.924;2023-05-14T03:33:43;9.80;99.90
42615;DHT22;28754;47.700;7.924;2023-05-14T03:36:30;9.70;99.90
42615;DHT22;28754;47.700;7.924;2023-05-14T03:39:18;9.80;99.90
42615;DHT22;28754;47.700;7.924;2023-05-14T03:42:05;9.70;99.90
42615;DHT22;28754;47.700;7.924;2023-05-14T03:44:52;9.80;99.90
42615;DHT22;28754;47.700;7.924;2023-05-14T03:47:39;9.80;99.90
42615;DHT22;28754;47.700;7.924;2023-05-14T03:50:26;9.80;99.90
42615;DHT22;28754;47.700;7.924;2023-05-14T03:53:13;9.80;99.90
42615;DHT22;28754;47.700;7.924;2023-05-14T03:56:00;9.80;99.90
42615;DHT22;28754;47.700;7.924;2023-05-14T03:58:46;9.80;99.90
42615;DHT22;28754;47.700;7.924;2023-05-14T04:01:34;9.90;99.90
42615;DHT22;28754;47.700;7.924;2023-05-14T04:04:21;9.90;99.90
42615;DHT22;28754;47.700;7.924;2023-05-14T04:07:08;9.80;99.90
42615;DHT22;28754;47.700;7.924;2023-05-14T04:09:54;9.80;99.90
42615;DHT22;28754;47.700;7.924;2023-05-14T04:12:42;9.80;99.90
42615;DHT22;28754;47.700;7.924;2023-05-14T04:15:28;9.80;99.90
42615;DHT22;28754;47.700;7.924;2023-05-14T04:18:15;9.90;99.90
42615;DHT22;28754;47.700;7.924;2023-05-14T04:21:02;9.90;99.90
42615;DHT22;28754;47.700;7.924;2023-05-14T04:23:52;9.90;99.90
42615;DHT22;28754;47.700;7.924;2023-05-14T04:26:44;9.90;99.90
42615;DHT22;28754;47.700;7.924;2023-05-14T04:29:30;10.00;99.90
42615;DHT22;28754;47.700;7.924;2023-05-14T04:32:18;10.00;99.90
42615;DHT22;28754;47.700;7.924;2023-05-14T04:35:05;10.00;99.90
42615;DHT22;28754;47.700;7.924;2023-05-14T04:37:52;10.00;99.90
42615;DHT22;28754;47.700;7.924;2023-05-14T04:40:39;10.10;99.90
42615;DHT22;28754;47.700;7.924;2023-05-14T04:43:29;10.10;99.90
42615;DHT22;28754;47.700;7.924;2023-05-14T04:46:16;10.10;99.90
42615;DHT22;28754;47.700;7.924;2023-05-14T04:49:02;10.10;99.90
42615;DHT22;28754;47.700;7.924;2023-05-14T04:51:49;10.00;99.90
42615;DHT22;28754;47.700;7.924;2023-05-14T04:54:36;10.10;99.90
42615;DHT22;28754;47.700;7.924;2023-05-14T04:57:23;10.10;99.90
42615;DHT22;28754;47.700;7.924;2023-05-14T05:00:10;10.10;99.90
42615;DHT22;28754;47.700;7.924;2023-05-14T05:02:57;10.10;99.90
42615;DHT22;28754;47.700;7.924;2023-05-14T05:05:44;10.20;99.90
42615;DHT22;28754;47.700;7.924;2023-05-14T05:08:31;10.20;99.90
42615;DHT22;28754;47.700;7.924;2023-05-14T05:11:26;10.30;99.90
42615;DHT22;28754;47.700;7.924;2023-05-14T05:14:13;10.30;99.90
42615;DHT22;28754;47.700;7.924;2023-05-14T05:17:00;10.30;99.90
42615;DHT22;28754;47.700;7.924;2023-05-14T05:19:46;10.40;99.90
42615;DHT22;28754;47.700;7.924;2023-05-14T05:22:33;10.40;99.90
42615;DHT22;28754;47.700;7.924;2023-05-14T05:25:20;10.50;99.90
42615;DHT22;28754;47.700;7.924;2023-05-14T05:28:10;10.40;99.90
42615;DHT22;28754;47.700;7.924;2023-05-14T05:30:57;10.50;99.90
42615;DHT22;28754;47.700;7.924;2023-05-14T05:33:44;10.50;99.90
42615;DHT22;28754;47.700;7.924;2023-05-14T05:36:32;10.50;99.90
42615;DHT22;28754;47.700;7.924;2023-05-14T05:39:22;10.40;99.90
42615;DHT22;28754;47.700;7.924;2023-05-14T05:42:08;10.50;99.90
42615;DHT22;28754;47.700;7.924;2023-05-14T05:44:55;10.60;99.90
42615;DHT22;28754;47.700;7.924;2023-05-14T05:47:42;10.80;99.90
42615;DHT22;28754;47.700;7.924;2023-05-14T05:50:29;10.90;99.90
42615;DHT22;28754;47.700;7.924;2023-05-14T05:53:17;10.90;99.90
42615;DHT22;28754;47.700;7.924;2023-05-14T05:56:04;10.80;99.90
42615;DHT22;28754;47.700;7.924;2023-05-14T05:58:52;10.80;99.90
42615;DHT22;28754;47.700;7.924;2023-05-14T06:01:39;11.00;99.90
42615;DHT22;28754;47.700;7.924;2023-05-14T06:04:28;11.10;99.90
42615;DHT22;28754;47.700;7.924;2023-05-14T06:07:16;11.20;99.90
42615;DHT22;28754;47.700;7.924;2023-05-14T06:10:03;11.30;99.90
42615;DHT22;28754;47.700;7.924;2023-05-14T06:12:50;11.30;99.90
42615;DHT22;28754;47.700;7.924;2023-05-14T06:15:37;11.30;99.90
42615;DHT22;28754;47.700;7.924;2023-05-14T06:18:24;11.40;99.90
42615;DHT22;28754;47.700;7.924;2023-05-14T06:21:11;11.30;99.90
42615;DHT22;28754;47.700;7.924;2023-05-14T06:23:59;11.00;99.90
42615;DHT22;28754;47.700;7.924;2023-05-14T06:26:49;11.00;99.90
42615;DHT22;28754;47.700;7.924;2023-05-14T06:29:37;10.70;99.90
42615;DHT22;28754;47.700;7.924;2023-05-14T06:32:24;10.70;99.90
42615;DHT22;28754;47.700;7.924;2023-05-14T06:35:11;10.80;99.90
42615;DHT22;28754;47.700;7.924;2023-05-14T06:38:01;10.90;99.90
42615;DHT22;28754;47.700;7.924;2023-05-14T06:40:49;10.70;99.90
42615;DHT22;28754;47.700;7.924;2023-05-14T06:43:36;10.70;99.90
42615;DHT22;28754;47.700;7.924;2023-05-14T06:46:23;10.70;99.90
42615;DHT22;28754;47.700;7.924;2023-05-14T06:49:09;10.70;99.90
42615;DHT22;28754;47.700;7.924;2023-05-14T06:51:56;10.80;99.90
42615;DHT22;28754;47.700;7.924;2023-05-14T06:54:43;11.10;99.90
42615;DHT22;28754;47.700;7.924;2023-05-14T06:57:29;11.20;99.90
42615;DHT22;28754;47.700;7.924;2023-05-14T07:00:16;11.20;99.90
42615;DHT22;28754;47.700;7.924;2023-05-14T07:03:03;11.40;99.90
42615;DHT22;28754;47.700;7.924;2023-05-14T07:05:50;11.40;99.90
42615;DHT22;28754;47.700;7.924;2023-05-14T07:08:37;11.60;99.90
42615;DHT22;28754;47.700;7.924;2023-05-14T07:11:50;11.80;99.90
42615;DHT22;28754;47.700;7.924;2023-05-14T07:15:16;11.70;99.90
42615;DHT22;28754;47.700;7.924;2023-05-14T07:18:33;12.10;99.90
42615;DHT22;28754;47.700;7.924;2023-05-14T07:22:03;12.50;99.90
42615;DHT22;28754;47.700;7.924;2023-05-14T07:25:02;12.50;99.90
42615;DHT22;28754;47.700;7.924;2023-05-14T07:36:18;12.80;99.90
42615;DHT22;28754;47.700;7.924;2023-05-14T07:43:38;12.60;99.90
42615;DHT22;28754;47.700;7.924;2023-05-14T08:23:29;12.20;99.90
42615;DHT22;28754;47.700;7.924;2023-05-14T08:27:48;11.90;99.90
42615;DHT22;28754;47.700;7.924;2023-05-14T08:40:35;10.70;99.90
42615;DHT22;28754;47.700;7.924;2023-05-14T09:23:31;14.00;99.90
42615;DHT22;28754;47.700;7.924;2023-05-14T09:26:30;13.80;99.90
42615;DHT22;28754;47.700;7.924;2023-05-14T09:29:34;13.30;99.90
42615;DHT22;28754;47.700;7.924;2023-05-14T09:32:20;12.70;99.90
42615;DHT22;28754;47.700;7.924;2023-05-14T09:35:18;12.50;99.90
42615;DHT22;28754;47.700;7.924;2023-05-14T09:38:10;12.20;99.90
42615;DHT22;28754;47.700;7.924;2023-05-14T09:41:00;12.10;99.90
42615;DHT22;28754;47.700;7.924;2023-05-14T09:43:46;11.90;99.90
42615;DHT22;28754;47.700;7.924;2023-05-14T09:46:48;11.70;99.90
42615;DHT22;28754;47.700;7.924;2023-05-14T09:49:42;11.30;99.90
42615;DHT22;28754;47.700;7.924;2023-05-14T09:52:29;11.00;99.90
42615;DHT22;28754;47.700;7.924;2023-05-14T09:55:16;10.80;99.90
42615;DHT22;28754;47.700;7.924;2023-05-14T09:58:06;10.70;99.90
42615;DHT22;28754;47.700;7.924;2023-05-14T10:01:17;10.80;99.90
42615;DHT22;28754;47.700;7.924;2023-05-14T10:04:06;11.20;99.90
42615;DHT22;28754;47.700;7.924;2023-05-14T10:06:57;11.10;99.90
42615;DHT22;28754;47.700;7.924;2023-05-14T10:17:55;10.60;99.90
42615;DHT22;28754;47.700;7.924;2023-05-14T10:21:19;10.50;99.90
42615;DHT22;28754;47.700;7.924;2023-05-14T10:24:07;10.80;99.90
42615;DHT22;28754;47.700;7.924;2023-05-14T10:26:55;10.90;99.90
42615;DHT22;28754;47.700;7.924;2023-05-14T10:29:50;10.60;99.90
42615;DHT22;28754;47.700;7.924;2023-05-14T10:32:41;11.00;99.90
42615;DHT22;28754;47.700;7.924;2023-05-14T10:35:29;11.20;99.90
42615;DHT22;28754;47.700;7.924;2023-05-14T10:38:16;11.70;99.90
42615;DHT22;28754;47.700;7.924;2023-05-14T10:41:13;11.80;99.90
42615;DHT22;28754;47.700;7.924;2023-05-14T10:44:07;11.70;99.90
42615;DHT22;28754;47.700;7.924;2023-05-14T10:46:55;12.00;99.90
42615;DHT22;28754;47.700;7.924;2023-05-14T10:49:42;11.90;99.90
42615;DHT22;28754;47.700;7.924;2023-05-14T10:52:31;12.40;99.90
42615;DHT22;28754;47.700;7.924;2023-05-14T10:55:20;12.00;99.90
42615;DHT22;28754;47.700;7.924;2023-05-14T10:58:09;12.10;99.90
42615;DHT22;28754;47.700;7.924;2023-05-14T11:00:56;11.90;99.90
42615;DHT22;28754;47.700;7.924;2023-05-14T11:03:45;11.70;99.90
42615;DHT22;28754;47.700;7.924;2023-05-14T11:06:32;11.50;99.90
42615;DHT22;28754;47.700;7.924;2023-05-14T11:09:20;11.30;99.90
42615;DHT22;28754;47.700;7.924;2023-05-14T11:12:08;11.00;99.90
42615;DHT22;28754;47.700;7.924;2023-05-14T11:14:59;11.10;99.90
42615;DHT22;28754;47.700;7.924;2023-05-14T11:17:48;11.10;99.90
42615;DHT22;28754;47.700;7.924;2023-05-14T11:20:35;11.40;99.90
42615;DHT22;28754;47.700;7.924;2023-05-14T11:23:23;11.40;99.90
42615;DHT22;28754;47.700;7.924;2023-05-14T11:26:11;11.70;99.90
42615;DHT22;28754;47.700;7.924;2023-05-14T11:28:58;11.90;99.90
42615;DHT22;28754;47.700;7.924;2023-05-14T11:31:45;12.10;99.90
42615;DHT22;28754;47.700;7.924;2023-05-14T11:34:33;11.90;99.90
42615;DHT22;28754;47.700;7.924;2023-05-14T11:37:21;11.60;99.90
42615;DHT22;28754;47.700;7.924;2023-05-14T11:40:13;11.60;99.90
42615;DHT22;28754;47.700;7.924;2023-05-14T11:43:02;11.70;99.90
42615;DHT22;28754;47.700;7.924;2023-05-14T11:45:52;11.70;99.90
42615;DHT22;28754;47.700;7.924;2023-05-14T11:48:39;11.90;99.90
42615;DHT22;28754;47.700;7.924;2023-05-14T11:51:27;12.30;99.90
42615;DHT22;28754;47.700;7.924;2023-05-14T11:54:14;12.50;99.90
42615;DHT22;28754;47.700;7.924;2023-05-14T11:57:09;13.30;99.90
42615;DHT22;28754;47.700;7.924;2023-05-14T11:59:57;13.20;99.90
42615;DHT22;28754;47.700;7.924;2023-05-14T12:02:44;13.50;99.90
42615;DHT22;28754;47.700;7.924;2023-05-14T12:05:32;13.40;99.90
42615;DHT22;28754;47.700;7.924;2023-05-14T12:08:28;13.60;99.90
42615;DHT22;28754;47.700;7.924;2023-05-14T12:11:19;14.00;99.90
42615;DHT22;28754;47.700;7.924;2023-05-14T12:14:13;14.50;99.90
42615;DHT22;28754;47.700;7.924;2023-05-14T12:17:00;14.40;99.90
42615;DHT22;28754;47.700;7.924;2023-05-14T12:19:49;14.30;99.90
42615;DHT22;28754;47.700;7.924;2023-05-14T12:22:37;13.60;99.90
42615;DHT22;28754;47.700;7.924;2023-05-14T12:25:24;13.70;99.90
42615;DHT22;28754;47.700;7.924;2023-05-14T12:28:15;14.00;99.90
42615;DHT22;28754;47.700;7.924;2023-05-14T12:31:02;14.20;99.90
42615;DHT22;28754;47.700;7.924;2023-05-14T12:33:52;14.50;99.90
42615;DHT22;28754;47.700;7.924;2023-05-14T12:36:39;14.10;99.90
42615;DHT22;28754;47.700;7.924;2023-05-14T12:39:26;13.40;99.90
42615;DHT22;28754;47.700;7.924;2023-05-14T12:42:16;12.60;99.90
42615;DHT22;28754;47.700;7.924;2023-05-14T12:45:03;12.30;99.90
42615;DHT22;28754;47.700;7.924;2023-05-14T12:47:53;12.10;99.90
42615;DHT22;28754;47.700;7.924;2023-05-14T12:50:40;12.00;99.90
42615;DHT22;28754;47.700;7.924;2023-05-14T12:53:27;12.00;99.90
42615;DHT22;28754;47.700;7.924;2023-05-14T12:56:14;11.80;99.90
42615;DHT22;28754;47.700;7.924;2023-05-14T12:59:01;11.80;99.90
42615;DHT22;28754;47.700;7.924;2023-05-14T13:01:47;12.40;99.90
42615;DHT22;28754;47.700;7.924;2023-05-14T13:04:34;12.50;99.90
42615;DHT22;28754;47.700;7.924;2023-05-14T13:07:21;12.50;99.90
42615;DHT22;28754;47.700;7.924;2023-05-14T13:10:08;12.50;99.90
42615;DHT22;28754;47.700;7.924;2023-05-14T13:12:55;12.40;99.90
42615;DHT22;28754;47.700;7.924;2023-05-14T13:15:42;12.40;99.90
42615;DHT22;28754;47.700;7.924;2023-05-14T13:18:29;12.30;99.90
42615;DHT22;28754;47.700;7.924;2023-05-14T13:21:16;11.70;99.90
42615;DHT22;28754;47.700;7.924;2023-05-14T13:24:02;11.40;99.90
42615;DHT22;28754;47.700;7.924;2023-05-14T13:26:49;11.50;99.90
42615;DHT22;28754;47.700;7.924;2023-05-14T13:29:36;11.70;99.90
42615;DHT22;28754;47.700;7.924;2023-05-14T13:32:24;11.70;99.90
42615;DHT22;28754;47.700;7.924;2023-05-14T13:35:17;11.90;99.90
42615;DHT22;28754;47.700;7.924;2023-05-14T13:38:04;11.90;99.90
42615;DHT22;28754;47.700;7.924;2023-05-14T13:40:50;12.00;99.90
42615;DHT22;28754;47.700;7.924;2023-05-14T13:43:37;12.10;99.90
42615;DHT22;28754;47.700;7.924;2023-05-14T13:46:23;11.90;99.90
42615;DHT22;28754;47.700;7.924;2023-05-14T13:49:10;11.90;99.90
42615;DHT22;28754;47.700;7.924;2023-05-14T13:51:57;12.10;99.90
42615;DHT22;28754;47.700;7.924;2023-05-14T13:54:44;12.30;99.90
42615;DHT22;28754;47.700;7.924;2023-05-14T13:57:31;12.40;99.90
42615;DHT22;28754;47.700;7.924;2023-05-14T14:00:18;12.70;99.90
42615;DHT22;28754;47.700;7.924;2023-05-14T14:03:06;12.90;99.90
42615;DHT22;28754;47.700;7.924;2023-05-14T14:05:53;13.20;99.90
42615;DHT22;28754;47.700;7.924;2023-05-14T14:08:39;13.50;99.90
42615;DHT22;28754;47.700;7.924;2023-05-14T14:11:27;13.70;99.90
42615;DHT22;28754;47.700;7.924;2023-05-14T14:14:13;14.10;99.90
42615;DHT22;28754;47.700;7.924;2023-05-14T14:17:02;14.20;99.90
42615;DHT22;28754;47.700;7.924;2023-05-14T14:19:48;14.60;99.90
42615;DHT22;28754;47.700;7.924;2023-05-14T14:22:35;14.80;99.90
42615;DHT22;28754;47.700;7.924;2023-05-14T14:25:22;15.10;99.90
42615;DHT22;28754;47.700;7.924;2023-05-14T14:28:09;15.50;99.90
42615;DHT22;28754;47.700;7.924;2023-05-14T14:30:55;16.30;99.90
42615;DHT22;28754;47.700;7.924;2023-05-14T14:33:42;16.70;99.90
42615;DHT22;28754;47.700;7.924;2023-05-14T14:36:29;17.30;99.90
42615;DHT22;28754;47.700;7.924;2023-05-14T14:39:16;17.30;99.90
42615;DHT22;28754;47.700;7.924;2023-05-14T14:42:03;17.80;99.90
42615;DHT22;28754;47.700;7.924;2023-05-14T14:44:51;17.80;99.90
42615;DHT22;28754;47.700;7.924;2023-05-14T14:47:41;17.50;99.90
42615;DHT22;28754;47.700;7.924;2023-05-14T14:50:29;17.40;99.90
42615;DHT22;28754;47.700;7.924;2023-05-14T14:53:15;17.50;99.90
42615;DHT22;28754;47.700;7.924;2023-05-14T14:56:03;17.80;99.90
42615;DHT22;28754;47.700;7.924;2023-05-14T14:58:50;17.60;99.90
42615;DHT22;28754;47.700;7.924;2023-05-14T15:01:37;16.80;99.90
42615;DHT22;28754;47.700;7.924;2023-05-14T15:04:24;16.90;99.90
42615;DHT22;28754;47.700;7.924;2023-05-14T15:07:11;17.60;99.90
42615;DHT22;28754;47.700;7.924;2023-05-14T15:09:57;17.40;99.90
42615;DHT22;28754;47.700;7.924;2023-05-14T15:12:44;17.10;99.90
42615;DHT22;28754;47.700;7.924;2023-05-14T15:15:33;17.00;99.90
42615;DHT22;28754;47.700;7.924;2023-05-14T15:18:57;16.80;99.90
42615;DHT22;28754;47.700;7.924;2023-05-14T15:21:44;16.60;99.90
42615;DHT22;28754;47.700;7.924;2023-05-14T15:24:31;16.50;99.90
42615;DHT22;28754;47.700;7.924;2023-05-14T15:27:18;16.40;99.90
42615;DHT22;28754;47.700;7.924;2023-05-14T15:30:05;16.30;99.90
42615;DHT22;28754;47.700;7.924;2023-05-14T15:32:52;16.20;99.90
42615;DHT22;28754;47.700;7.924;2023-05-14T15:35:40;16.30;99.90
42615;DHT22;28754;47.700;7.924;2023-05-14T15:38:42;16.30;99.90
42615;DHT22;28754;47.700;7.924;2023-05-14T15:41:34;16.50;99.90
42615;DHT22;28754;47.700;7.924;2023-05-14T15:44:24;16.70;99.90
42615;DHT22;28754;47.700;7.924;2023-05-14T15:47:11;16.90;99.90
42615;DHT22;28754;47.700;7.924;2023-05-14T15:49:58;16.90;99.90
42615;DHT22;28754;47.700;7.924;2023-05-14T15:52:47;16.90;99.90
42615;DHT22;28754;47.700;7.924;2023-05-14T15:55:34;17.10;99.90
42615;DHT22;28754;47.700;7.924;2023-05-14T15:58:21;16.90;99.90
42615;DHT22;28754;47.700;7.924;2023-05-14T16:01:08;16.70;99.90
42615;DHT22;28754;47.700;7.924;2023-05-14T16:03:54;16.50;99.90
42615;DHT22;28754;47.700;7.924;2023-05-14T16:06:41;16.30;99.90
42615;DHT22;28754;47.700;7.924;2023-05-14T16:09:30;16.30;99.90
42615;DHT22;28754;47.700;7.924;2023-05-14T16:12:17;16.30;99.90
42615;DHT22;28754;47.700;7.924;2023-05-14T16:15:06;16.20;99.90
42615;DHT22;28754;47.700;7.924;2023-05-14T16:17:53;16.10;99.90
42615;DHT22;28754;47.700;7.924;2023-05-14T16:20:51;16.00;99.90
42615;DHT22;28754;47.700;7.924;2023-05-14T16:23:44;15.50;99.90
42615;DHT22;28754;47.700;7.924;2023-05-14T16:26:34;15.30;99.90
42615;DHT22;28754;47.700;7.924;2023-05-14T16:29:21;15.20;99.90
42615;DHT22;28754;47.700;7.924;2023-05-14T16:32:08;15.00;99.90
42615;DHT22;28754;47.700;7.924;2023-05-14T16:34:54;15.00;99.90
42615;DHT22;28754;47.700;7.924;2023-05-14T16:37:41;14.90;99.90
42615;DHT22;28754;47.700;7.924;2023-05-14T16:40:28;14.70;99.90
42615;DHT22;28754;47.700;7.924;2023-05-14T16:43:16;14.60;99.90
42615;DHT22;28754;47.700;7.924;2023-05-14T16:46:03;14.50;99.90
42615;DHT22;28754;47.700;7.924;2023-05-14T16:49:01;14.20;99.90
42615;DHT22;28754;47.700;7.924;2023-05-14T16:51:57;14.20;99.90
42615;DHT22;28754;47.700;7.924;2023-05-14T16:54:47;14.10;99.90
42615;DHT22;28754;47.700;7.924;2023-05-14T16:57:34;14.20;99.90
42615;DHT22;28754;47.700;7.924;2023-05-14T17:00:21;14.10;99.90
42615;DHT22;28754;47.700;7.924;2023-05-14T17:03:08;14.10;99.90
42615;DHT22;28754;47.700;7.924;2023-05-14T17:06:06;14.20;99.90
42615;DHT22;28754;47.700;7.924;2023-05-14T17:08:57;14.10;99.90
42615;DHT22;28754;47.700;7.924;2023-05-14T17:11:44;14.00;99.90
42615;DHT22;28754;47.700;7.924;2023-05-14T17:14:34;14.00;99.90
42615;DHT22;28754;47.700;7.924;2023-05-14T17:17:21;13.90;99.90
42615;DHT22;28754;47.700;7.924;2023-05-14T17:20:14;13.90;99.90
42615;DHT22;28754;47.700;7.924;2023-05-14T17:23:27;13.70;99.90
42615;DHT22;28754;47.700;7.924;2023-05-14T17:26:17;13.70;99.90
42615;DHT22;28754;47.700;7.924;2023-05-14T17:29:11;13.60;99.90
42615;DHT22;28754;47.700;7.924;2023-05-14T17:32:00;13.60;99.90
42615;DHT22;28754;47.700;7.924;2023-05-14T17:34:54;13.50;99.90
42615;DHT22;28754;47.700;7.924;2023-05-14T17:37:47;13.40;99.90
42615;DHT22;28754;47.700;7.924;2023-05-14T17:40:34;13.30;99.90
42615;DHT22;28754;47.700;7.924;2023-05-14T17:43:21;13.20;99.90
42615;DHT22;28754;47.700;7.924;2023-05-14T17:46:08;13.10;99.90
42615;DHT22;28754;47.700;7.924;2023-05-14T17:49:05;13.10;99.90
42615;DHT22;28754;47.700;7.924;2023-05-14T17:53:25;13.00;99.90
42615;DHT22;28754;47.700;7.924;2023-05-14T18:00:33;13.00;99.90
42615;DHT22;28754;47.700;7.924;2023-05-14T18:03:36;12.90;99.90
42615;DHT22;28754;47.700;7.924;2023-05-14T18:06:49;12.90;99.90
42615;DHT22;28754;47.700;7.924;2023-05-14T18:10:00;13.00;99.90
42615;DHT22;28754;47.700;7.924;2023-05-14T18:12:47;13.00;99.90
42615;DHT22;28754;47.700;7.924;2023-05-14T18:15:39;12.80;99.90
42615;DHT22;28754;47.700;7.924;2023-05-14T18:18:47;12.50;99.90
42615;DHT22;28754;47.700;7.924;2023-05-14T18:21:36;12.40;99.90
42615;DHT22;28754;47.700;7.924;2023-05-14T18:24:41;12.50;99.90
42615;DHT22;28754;47.700;7.924;2023-05-14T18:27:39;12.50;99.90
42615;DHT22;28754;47.700;7.924;2023-05-14T18:30:33;12.50;99.90
42615;DHT22;28754;47.700;7.924;2023-05-14T18:33:20;12.50;99.90
42615;DHT22;28754;47.700;7.924;2023-05-14T18:36:06;12.50;99.90
42615;DHT22;28754;47.700;7.924;2023-05-14T18:38:53;12.50;99.90
42615;DHT22;28754;47.700;7.924;2023-05-14T18:41:40;12.40;99.90
42615;DHT22;28754;47.700;7.924;2023-05-14T18:44:27;12.30;99.90
42615;DHT22;28754;47.700;7.924;2023-05-14T18:47:14;12.30;99.90
42615;DHT22;28754;47.700;7.924;2023-05-14T18:50:06;12.20;99.90
42615;DHT22;28754;47.700;7.924;2023-05-14T18:52:53;12.30;99.90
42615;DHT22;28754;47.700;7.924;2023-05-14T18:55:40;12.30;99.90
42615;DHT22;28754;47.700;7.924;2023-05-14T18:58:27;12.30;99.90
42615;DHT22;28754;47.700;7.924;2023-05-14T19:01:14;12.20;99.90
42615;DHT22;28754;47.700;7.924;2023-05-14T19:04:03;12.20;99.90
42615;DHT22;28754;47.700;7.924;2023-05-14T19:06:51;12.20;99.90
42615;DHT22;28754;47.700;7.924;2023-05-14T19:09:38;12.20;99.90
42615;DHT22;28754;47.700;7.924;2023-05-14T19:12:33;12.20;99.90
42615;DHT22;28754;47.700;7.924;2023-05-14T19:15:20;12.20;99.90
42615;DHT22;28754;47.700;7.924;2023-05-14T19:18:07;12.10;99.90
42615;DHT22;28754;47.700;7.924;2023-05-14T19:20:53;12.10;99.90
42615;DHT22;28754;47.700;7.924;2023-05-14T19:23:44;12.10;99.90
42615;DHT22;28754;47.700;7.924;2023-05-14T19:26:31;11.90;99.90
42615;DHT22;28754;47.700;7.924;2023-05-14T19:29:18;11.90;99.90
42615;DHT22;28754;47.700;7.924;2023-05-14T19:32:05;11.90;99.90
42615;DHT22;28754;47.700;7.924;2023-05-14T19:34:52;11.80;99.90
42615;DHT22;28754;47.700;7.924;2023-05-14T19:37:39;11.80;99.90
42615;DHT22;28754;47.700;7.924;2023-05-14T19:40:25;11.50;99.90
42615;DHT22;28754;47.700;7.924;2023-05-14T19:43:12;11.50;99.90
42615;DHT22;28754;47.700;7.924;2023-05-14T19:46:01;11.50;99.90
42615;DHT22;28754;47.700;7.924;2023-05-14T19:48:53;11.50;99.90
42615;DHT22;28754;47.700;7.924;2023-05-14T19:51:39;11.50;99.90
42615;DHT22;28754;47.700;7.924;2023-05-14T19:54:26;11.50;99.90
42615;DHT22;28754;47.700;7.924;2023-05-14T19:57:24;11.50;99.90